Flight Briefing for CPX242

Departure Arrival
Huntsville International Airport (KHSV)
Click to view FAA NOTAMS
Chicago/Rockford International Airport (KRFD)
Click to view FAA NOTAMS
Departure Time Arrival Time
N/A N/A
Aircraft Distance
B767-300BDSF 466nm
Departure METAR Arrival METAR
KHSV 192235Z 12008KT 2SM TSRA BR SCT010 BKN055CB OVC080 06/05 A3023 RMK AO2 SFC VIS 3 LTG DSNT N AND NE TSE2156E10B12 OCNL LTGICCCCG N TS N MOV NE P0005 T00610050 $ KRFD 192154Z 14006KT 10SM FEW150 OVC250 M04/M11 A3050 RMK AO2 SLP343 T10391106
Suggested Route
RQZ BNA J73 GUIDO JOT


View recent IFR Routes data
Notes



Charts and Procedures

Charts for KHSV
No chart available
Charts for KRFD
No chart available

Ventusky Weather




{"cat":null,"equip":null,"transponder":null,"pbn":"PBN\/","maxpax":null,"oew":"0.0","mzfw":"0.0","mtow":"0.0","mlw":"0.0","maxfuel":"0.0"} DEVELOPMENTAL TEST USE ONLY